Time;durP1;ratioP1;P1;durP2;ratioP2;P2;SDS_P1;SDS_P2;PMS_P1;PMS_P2;Temp;Humidity;BMP_temperature;BMP_pressure;BME280_temperature;BME280_humidity;BME280_pressure;Samples;Min_cycle;Max_cycle;Signal;HPM_P1;HPM_P2
2020/12/24 00:00:32;;;;;;;7.38;1.30;;;8.10;99.90;;;;;;5052498;28;20029;-42
2020/12/24 00:02:57;;;;;;;3.60;1.08;;;8.10;99.90;;;;;;5052164;28;20078;-39
2020/12/24 00:05:23;;;;;;;5.25;1.05;;;8.00;99.90;;;;;;5034665;28;20032;-39
2020/12/24 00:07:49;;;;;;;8.82;2.17;;;8.00;99.90;;;;;;5035439;28;20029;-38
2020/12/24 00:10:16;;;;;;;5.55;0.98;;;7.90;99.90;;;;;;5052173;28;20039;-43
2020/12/24 00:12:42;;;;;;;8.10;1.60;;;7.80;99.90;;;;;;5052549;28;20071;-39
2020/12/24 00:15:09;;;;;;;7.25;1.52;;;7.80;99.90;;;;;;5050389;28;20082;-39
2020/12/24 00:17:35;;;;;;;6.60;1.27;;;7.80;99.90;;;;;;5044027;28;20124;-39
2020/12/24 00:20:01;;;;;;;13.57;1.65;;;7.70;99.90;;;;;;5029390;28;20076;-39
2020/12/24 00:22:26;;;;;;;11.70;1.60;;;7.70;99.90;;;;;;5016122;28;20438;-39
2020/12/24 00:24:52;;;;;;;11.52;1.77;;;7.80;99.90;;;;;;5048764;28;20029;-40
2020/12/24 00:27:18;;;;;;;9.73;1.70;;;7.80;99.90;;;;;;5052080;28;20551;-39
2020/12/24 00:29:43;;;;;;;18.98;3.95;;;7.80;99.90;;;;;;5051034;28;20037;-46
2020/12/24 00:32:09;;;;;;;5.68;1.67;;;7.80;99.90;;;;;;5033887;28;20063;-40
2020/12/24 00:34:35;;;;;;;10.48;1.65;;;7.70;99.90;;;;;;5033925;28;20059;-40
2020/12/24 00:37:00;;;;;;;16.90;3.83;;;7.70;99.90;;;;;;5050056;28;20025;-42
2020/12/24 00:39:26;;;;;;;15.93;2.13;;;7.70;99.90;;;;;;5052288;28;20064;-41
2020/12/24 00:41:52;;;;;;;8.05;1.20;;;7.70;99.90;;;;;;5046876;28;20039;-43
2020/12/24 00:44:19;;;;;;;6.15;1.13;;;7.80;99.90;;;;;;5052191;28;20083;-39
2020/12/24 00:46:45;;;;;;;8.38;2.28;;;7.90;99.90;;;;;;5051120;28;20094;-41
2020/12/24 00:49:10;;;;;;;7.57;1.75;;;7.90;99.90;;;;;;5051997;28;20433;-39
2020/12/24 00:51:36;;;;;;;10.68;2.17;;;8.00;99.90;;;;;;5051889;28;20132;-41
2020/12/24 00:54:01;;;;;;;11.10;1.48;;;8.00;99.90;;;;;;5051217;28;20522;-41
2020/12/24 00:56:27;;;;;;;11.35;2.88;;;8.00;99.90;;;;;;5046163;28;20064;-41
2020/12/24 00:58:53;;;;;;;9.07;1.40;;;8.00;99.90;;;;;;5025163;28;20045;-41
2020/12/24 01:01:19;;;;;;;12.25;1.88;;;8.10;99.90;;;;;;5031017;28;20029;-40
2020/12/24 01:03:44;;;;;;;10.23;1.70;;;8.10;99.90;;;;;;5049221;28;20048;-44
2020/12/24 01:06:10;;;;;;;8.52;1.70;;;8.00;99.90;;;;;;5055760;28;20029;-38
2020/12/24 01:08:35;;;;;;;12.13;1.55;;;8.00;99.90;;;;;;5044707;28;20029;-38
2020/12/24 01:11:01;;;;;;;15.55;2.20;;;8.00;99.90;;;;;;5053498;28;20469;-38
2020/12/24 01:13:26;;;;;;;11.05;1.83;;;7.90;99.90;;;;;;5043080;28;20029;-41
2020/12/24 01:15:52;;;;;;;12.48;1.75;;;7.90;99.90;;;;;;5054720;28;20146;-40
2020/12/24 01:18:18;;;;;;;11.38;1.58;;;7.80;99.90;;;;;;5054177;28;20021;-40
2020/12/24 01:20:45;;;;;;;7.97;1.58;;;7.80;99.90;;;;;;5053873;28;20039;-41
2020/12/24 01:23:10;;;;;;;10.35;2.00;;;7.80;99.90;;;;;;5053347;28;20032;-40
2020/12/24 01:25:36;;;;;;;9.63;1.63;;;7.80;99.90;;;;;;5053465;28;20132;-39
2020/12/24 01:28:01;;;;;;;10.52;2.28;;;7.80;99.90;;;;;;5053224;28;20457;-39
2020/12/24 01:30:27;;;;;;;15.80;2.30;;;7.70;99.90;;;;;;5054604;28;20451;-40
2020/12/24 01:32:53;;;;;;;8.35;1.25;;;7.70;99.90;;;;;;5033423;28;20045;-40
2020/12/24 01:35:19;;;;;;;6.28;1.08;;;7.80;99.90;;;;;;5052666;28;20033;-40
2020/12/24 01:37:45;;;;;;;8.02;1.55;;;7.70;99.90;;;;;;5047010;28;20033;-38
2020/12/24 01:40:11;;;;;;;13.82;2.65;;;7.80;99.90;;;;;;5045998;28;20064;-39
2020/12/24 01:42:36;;;;;;;13.07;2.10;;;7.80;99.90;;;;;;5054544;28;20036;-39
2020/12/24 01:45:02;;;;;;;14.85;2.10;;;7.80;99.90;;;;;;5048325;28;20029;-41
2020/12/24 01:47:28;;;;;;;12.80;2.10;;;7.80;99.90;;;;;;5035460;28;20480;-38
2020/12/24 01:49:53;;;;;;;15.40;1.80;;;7.80;99.90;;;;;;5053097;28;20141;-39
2020/12/24 01:52:31;;;;;;;11.38;1.98;;;7.80;99.90;;;;;;5050540;28;20065;-40
2020/12/24 01:54:58;;;;;;;11.05;2.35;;;7.80;99.90;;;;;;5049422;28;20484;-40
2020/12/24 01:57:24;;;;;;;14.25;3.50;;;7.80;99.90;;;;;;5054331;28;20511;-41
2020/12/24 01:59:49;;;;;;;10.52;1.92;;;7.70;99.90;;;;;;5046279;28;20041;-40
2020/12/24 02:02:15;;;;;;;10.95;1.88;;;7.70;99.90;;;;;;5046568;28;20028;-40
2020/12/24 02:04:40;;;;;;;9.65;2.22;;;7.70;99.90;;;;;;5041910;28;20033;-40
2020/12/24 02:07:06;;;;;;;7.88;1.55;;;7.80;99.90;;;;;;5048040;28;20052;-40
2020/12/24 02:09:32;;;;;;;9.10;1.95;;;7.80;99.90;;;;;;5044495;28;20084;-40
2020/12/24 02:11:58;;;;;;;9.35;1.70;;;7.80;99.90;;;;;;5053847;28;20048;-39
2020/12/24 02:14:24;;;;;;;8.40;1.60;;;7.80;99.90;;;;;;5036920;28;20025;-40
2020/12/24 02:16:50;;;;;;;8.23;1.85;;;7.80;99.90;;;;;;5046999;28;20036;-40
2020/12/24 02:19:16;;;;;;;15.73;3.10;;;7.80;99.90;;;;;;5050215;28;20029;-36
2020/12/24 02:21:41;;;;;;;12.23;1.90;;;7.80;99.90;;;;;;5052589;28;20042;-39
2020/12/24 02:24:08;;;;;;;11.50;2.45;;;7.80;99.90;;;;;;5040132;28;20041;-40
2020/12/24 02:26:33;;;;;;;10.75;1.70;;;7.80;99.90;;;;;;5053680;28;20024;-39
2020/12/24 02:28:59;;;;;;;13.05;2.20;;;7.80;99.90;;;;;;5050937;28;20154;-39
2020/12/24 02:31:25;;;;;;;12.18;1.98;;;7.80;99.90;;;;;;5017290;28;20044;-39
2020/12/24 02:33:52;;;;;;;10.82;2.00;;;7.80;99.90;;;;;;5043339;28;20045;-40
2020/12/24 02:36:17;;;;;;;14.02;1.85;;;7.80;99.90;;;;;;5052282;28;20083;-40
2020/12/24 02:38:43;;;;;;;10.55;2.35;;;7.80;99.90;;;;;;5035192;28;20119;-39
2020/12/24 02:41:09;;;;;;;9.13;1.17;;;7.80;99.90;;;;;;5052471;28;20474;-41
2020/12/24 02:43:34;;;;;;;11.02;1.80;;;7.80;99.90;;;;;;5041432;28;20029;-39
2020/12/24 02:46:00;;;;;;;12.52;1.70;;;7.80;99.90;;;;;;5054566;28;20033;-40
2020/12/24 02:48:25;;;;;;;12.13;1.83;;;7.70;99.90;;;;;;5049205;28;20079;-40
2020/12/24 02:50:51;;;;;;;10.50;1.30;;;7.80;99.90;;;;;;5049700;28;20083;-39
2020/12/24 02:53:17;;;;;;;15.73;2.50;;;7.70;99.90;;;;;;5047855;28;20072;-40
2020/12/24 02:55:44;;;;;;;10.30;1.67;;;7.70;99.90;;;;;;5036998;28;20082;-39
2020/12/24 02:58:09;;;;;;;14.70;1.80;;;7.80;99.90;;;;;;5049046;28;20039;-40
2020/12/24 03:00:35;;;;;;;12.07;2.13;;;7.70;99.90;;;;;;5036912;28;20466;-38
2020/12/24 03:03:01;;;;;;;12.43;2.35;;;7.70;99.90;;;;;;5048557;28;20481;-40
2020/12/24 03:05:26;;;;;;;9.95;1.95;;;7.80;99.90;;;;;;5041634;28;20027;-40
2020/12/24 03:07:52;;;;;;;9.10;1.90;;;7.70;99.90;;;;;;5046935;28;20025;-39
2020/12/24 03:10:18;;;;;;;11.23;2.60;;;7.70;99.90;;;;;;5050838;28;20029;-40
2020/12/24 03:12:44;;;;;;;17.58;3.30;;;7.70;99.90;;;;;;5052843;28;20378;-39
2020/12/24 03:15:14;;;;;;;11.52;2.92;;;7.70;99.90;;;;;;5051827;28;20154;-40
2020/12/24 03:17:39;;;;;;;9.00;2.22;;;7.70;99.90;;;;;;5042060;28;20572;-40
2020/12/24 03:20:07;;;;;;;11.00;2.92;;;7.80;99.90;;;;;;5031823;28;20041;-40
2020/12/24 03:22:34;;;;;;;20.05;2.38;;;7.70;99.90;;;;;;5046478;28;20024;-40
2020/12/24 03:24:59;;;;;;;15.18;2.80;;;7.80;99.90;;;;;;5035544;28;20186;-39
2020/12/24 03:27:25;;;;;;;10.07;1.40;;;7.80;99.90;;;;;;5052160;28;20127;-42
2020/12/24 03:29:50;;;;;;;9.68;1.90;;;7.80;99.90;;;;;;5048220;28;20076;-41
2020/12/24 03:32:16;;;;;;;18.00;1.98;;;7.80;99.90;;;;;;5046957;28;20064;-39
2020/12/24 03:34:42;;;;;;;6.65;1.58;;;7.80;99.90;;;;;;5050283;28;20044;-40
2020/12/24 03:37:07;;;;;;;12.68;2.30;;;7.80;99.90;;;;;;5045254;28;20158;-39
2020/12/24 03:39:33;;;;;;;13.95;2.47;;;7.80;99.90;;;;;;5049955;28;20056;-39
2020/12/24 03:41:58;;;;;;;10.43;2.40;;;7.70;99.90;;;;;;5026485;28;20132;-40
2020/12/24 03:44:24;;;;;;;6.65;2.20;;;7.70;99.90;;;;;;5046435;28;20036;-39
2020/12/24 03:46:49;;;;;;;9.20;2.35;;;7.70;99.90;;;;;;5052559;28;20052;-40
2020/12/24 03:49:15;;;;;;;10.43;2.40;;;7.70;99.90;;;;;;5043196;28;20508;-39
2020/12/24 03:51:40;;;;;;;8.48;1.60;;;7.70;99.90;;;;;;5041255;28;20465;-41
2020/12/24 03:54:06;;;;;;;22.08;2.95;;;7.70;99.90;;;;;;5043786;28;20044;-38
2020/12/24 03:56:31;;;;;;;37.05;5.32;;;7.70;99.90;;;;;;5035018;28;20041;-39
2020/12/24 03:58:57;;;;;;;23.00;3.78;;;7.60;99.90;;;;;;5035087;28;20039;-39
2020/12/24 04:01:24;;;;;;;31.05;4.05;;;7.50;99.90;;;;;;5053021;28;20090;-39
2020/12/24 04:03:50;;;;;;;21.80;4.70;;;7.40;99.90;;;;;;5052131;28;20029;-40
2020/12/24 04:06:15;;;;;;;32.35;4.65;;;7.50;99.90;;;;;;5052885;28;20071;-39
2020/12/24 04:08:41;;;;;;;29.85;5.72;;;7.40;99.90;;;;;;5049687;28;20053;-40
2020/12/24 04:11:06;;;;;;;31.50;4.30;;;7.20;99.90;;;;;;5046722;28;20065;-39
2020/12/24 04:13:32;;;;;;;26.10;5.45;;;7.10;99.90;;;;;;5030445;28;20470;-39
2020/12/24 04:15:57;;;;;;;28.15;4.50;;;7.00;99.90;;;;;;5052720;28;20041;-39
2020/12/24 04:18:23;;;;;;;27.92;4.50;;;6.90;99.90;;;;;;5030667;28;20032;-40
2020/12/24 04:20:49;;;;;;;27.27;4.63;;;6.70;99.90;;;;;;5051638;28;20033;-39
2020/12/24 04:23:14;;;;;;;33.95;5.25;;;6.60;99.90;;;;;;5045539;28;20021;-39
2020/12/24 04:25:40;;;;;;;22.77;3.55;;;6.40;99.90;;;;;;5034294;28;20141;-39
2020/12/24 04:28:06;;;;;;;22.88;4.25;;;6.30;99.90;;;;;;5049257;28;20025;-40
2020/12/24 04:30:32;;;;;;;23.08;3.60;;;6.20;99.90;;;;;;5041066;28;20025;-38
2020/12/24 04:32:57;;;;;;;20.65;4.25;;;6.20;99.90;;;;;;5047392;28;20037;-38
2020/12/24 04:35:23;;;;;;;15.85;3.58;;;6.00;99.90;;;;;;5043282;28;20057;-39
2020/12/24 04:37:50;;;;;;;23.98;3.53;;;6.00;99.90;;;;;;5028898;28;20033;-40
2020/12/24 04:40:16;;;;;;;24.88;4.30;;;5.90;99.90;;;;;;5049454;28;20040;-39
2020/12/24 04:42:42;;;;;;;21.13;3.90;;;5.80;99.90;;;;;;5048389;28;20098;-40
2020/12/24 04:45:09;;;;;;;21.55;3.70;;;5.70;99.90;;;;;;5050163;28;20025;-41
2020/12/24 04:47:38;;;;;;;25.50;3.70;;;5.70;99.90;;;;;;5049421;28;20083;-41
2020/12/24 04:50:04;;;;;;;19.40;3.35;;;5.70;99.90;;;;;;5019088;28;20034;-40
2020/12/24 04:52:30;;;;;;;21.35;3.20;;;5.60;99.90;;;;;;5031432;28;20539;-37
2020/12/24 04:54:57;;;;;;;16.10;2.97;;;5.30;99.90;;;;;;5015242;28;20034;-43
2020/12/24 04:57:23;;;;;;;14.30;2.72;;;5.30;99.90;;;;;;5049168;28;20462;-40
2020/12/24 04:59:51;;;;;;;21.58;3.53;;;5.40;99.90;;;;;;5044554;28;20052;-42
2020/12/24 05:02:17;;;;;;;17.83;4.05;;;5.40;99.90;;;;;;5044550;28;20492;-40
2020/12/24 05:04:42;;;;;;;23.55;4.00;;;5.30;99.90;;;;;;5050566;28;20037;-39
2020/12/24 05:07:08;;;;;;;22.80;5.03;;;5.30;99.90;;;;;;5050904;28;20033;-40
2020/12/24 05:09:34;;;;;;;18.55;3.65;;;5.40;99.90;;;;;;5038330;28;20029;-40
2020/12/24 05:12:00;;;;;;;20.25;4.15;;;5.30;99.90;;;;;;5038505;28;20052;-41
2020/12/24 05:14:28;;;;;;;15.27;2.63;;;5.20;99.90;;;;;;5046457;28;20029;-39
2020/12/24 05:16:59;;;;;;;24.15;2.65;;;5.20;99.90;;;;;;5035633;28;20032;-39
2020/12/24 05:19:27;;;;;;;27.73;3.38;;;5.10;99.90;;;;;;5043997;28;20029;-41
2020/12/24 05:21:53;;;;;;;21.35;2.70;;;5.20;99.90;;;;;;5019213;28;20038;-38
2020/12/24 05:24:27;;;;;;;22.88;4.32;;;5.20;99.90;;;;;;5052406;28;20036;-40
2020/12/24 05:27:15;;;;;;;18.00;3.15;;;5.20;99.90;;;;;;5044092;28;20092;-38
2020/12/24 05:29:46;;;;;;;14.85;3.38;;;5.20;99.90;;;;;;5036686;28;20410;-38
2020/12/24 05:32:25;;;;;;;15.40;2.80;;;5.30;99.90;;;;;;5017238;28;20061;-39
2020/12/24 05:35:05;;;;;;;14.70;3.42;;;5.40;99.90;;;;;;5050694;28;20048;-39
2020/12/24 05:37:31;;;;;;;18.85;3.33;;;5.50;99.90;;;;;;5050965;28;20037;-42
2020/12/24 05:39:57;;;;;;;15.05;2.75;;;5.50;99.90;;;;;;5042509;28;20032;-42
2020/12/24 05:42:24;;;;;;;11.35;2.33;;;5.50;99.90;;;;;;5050475;28;20121;-40
2020/12/24 05:44:50;;;;;;;15.45;2.33;;;5.40;99.90;;;;;;5052476;28;20080;-44
2020/12/24 05:47:26;;;;;;;22.92;3.25;;;5.40;99.90;;;;;;5047528;28;20049;-38
2020/12/24 05:49:52;;;;;;;19.17;2.75;;;5.40;99.90;;;;;;5049340;28;20033;-40
2020/12/24 05:52:17;;;;;;;16.73;3.40;;;5.40;99.90;;;;;;5035327;28;20045;-40
2020/12/24 05:54:46;;;;;;;19.48;2.70;;;5.50;99.90;;;;;;5031015;28;20121;-40
2020/12/24 05:57:12;;;;;;;14.73;2.78;;;5.50;99.90;;;;;;5053887;28;20549;-39
2020/12/24 05:59:40;;;;;;;13.85;2.65;;;5.40;99.90;;;;;;5043920;28;20025;-40
2020/12/24 06:02:15;;;;;;;16.02;2.35;;;5.40;99.90;;;;;;5053924;28;20080;-40
2020/12/24 06:04:46;;;;;;;18.67;2.60;;;5.40;99.90;;;;;;5055152;28;20029;-40
2020/12/24 06:07:17;;;;;;;21.42;2.75;;;5.40;99.90;;;;;;5052134;28;20087;-40
2020/12/24 06:09:44;;;;;;;13.30;2.83;;;5.40;99.90;;;;;;5039645;28;20033;-41
2020/12/24 06:12:24;;;;;;;13.77;3.15;;;5.50;99.90;;;;;;5045417;28;20037;-41
2020/12/24 06:14:52;;;;;;;16.83;2.70;;;5.50;99.90;;;;;;5048459;28;20112;-39
2020/12/24 06:17:19;;;;;;;7.95;1.80;;;5.50;99.90;;;;;;5033939;28;20032;-40
2020/12/24 06:19:45;;;;;;;18.27;2.33;;;5.60;99.90;;;;;;5050313;28;20063;-39
2020/12/24 06:22:11;;;;;;;15.30;2.72;;;5.60;99.90;;;;;;5046760;28;20033;-41
2020/12/24 06:24:45;;;;;;;12.95;2.70;;;5.60;99.90;;;;;;5037364;28;20033;-39
2020/12/24 06:27:23;;;;;;;12.98;2.75;;;5.60;99.90;;;;;;5049427;28;20108;-39
2020/12/24 06:29:51;;;;;;;11.52;2.35;;;5.60;99.90;;;;;;5050106;28;20042;-40
2020/12/24 06:32:20;;;;;;;15.57;2.35;;;5.60;99.90;;;;;;5053502;28;20043;-41
2020/12/24 06:34:46;;;;;;;16.20;2.03;;;5.60;99.90;;;;;;5034574;28;20075;-42
2020/12/24 06:37:15;;;;;;;13.05;2.45;;;5.70;99.90;;;;;;5053875;28;20063;-40
2020/12/24 06:39:52;;;;;;;7.78;1.67;;;5.70;99.90;;;;;;5045013;28;20032;-40
2020/12/24 06:42:36;;;;;;;14.55;1.58;;;5.70;99.90;;;;;;5052291;28;20090;-40
2020/12/24 06:45:03;;;;;;;16.75;2.63;;;5.70;99.90;;;;;;5052942;28;20101;-40
2020/12/24 06:47:29;;;;;;;8.30;1.60;;;5.80;99.90;;;;;;5047205;28;20049;-38
2020/12/24 06:49:54;;;;;;;10.40;1.75;;;5.80;99.90;;;;;;5028293;28;20074;-39
2020/12/24 06:52:30;;;;;;;11.40;1.70;;;5.80;99.90;;;;;;5052566;28;20036;-42
2020/12/24 06:55:28;;;;;;;11.27;2.03;;;5.80;99.90;;;;;;5038099;28;20364;-41
2020/12/24 06:57:53;;;;;;;16.75;3.60;;;5.80;99.90;;;;;;4962284;28;20039;-40
2020/12/24 07:00:21;;;;;;;12.43;1.52;;;5.90;99.90;;;;;;4954662;28;20050;-41
2020/12/24 07:02:53;;;;;;;9.65;1.45;;;5.90;99.90;;;;;;4954041;28;20107;-42
2020/12/24 07:05:37;;;;;;;;;;;5.80;99.90;;;;;;4957166;28;20460;-40
2020/12/24 07:08:03;;;;;;;17.63;1.80;;;5.90;99.90;;;;;;4968105;28;20343;-39
2020/12/24 07:10:49;;;;;;;13.00;2.17;;;5.90;99.90;;;;;;4955770;28;20058;-39
2020/12/24 07:13:33;;;;;;;9.73;1.92;;;5.90;99.90;;;;;;4956050;28;20118;-41
2020/12/24 07:15:59;;;;;;;9.93;1.83;;;5.90;99.90;;;;;;4957513;28;20071;-40
2020/12/24 07:18:27;;;;;;;12.77;2.08;;;5.90;99.90;;;;;;4958848;28;20035;-39
2020/12/24 07:20:54;;;;;;;12.68;1.75;;;5.90;99.90;;;;;;4956263;28;20521;-39
2020/12/24 07:23:45;;;;;;;12.95;1.98;;;5.90;99.90;;;;;;4955769;28;20070;-40
2020/12/24 07:26:12;;;;;;;11.95;1.50;;;6.00;99.90;;;;;;4904473;29;20513;-41
2020/12/24 07:28:40;;;;;;;11.77;2.08;;;6.00;99.90;;;;;;4911299;29;20036;-40
2020/12/24 07:31:10;;;;;;;17.92;2.03;;;6.00;99.90;;;;;;4915020;29;20083;-42
2020/12/24 07:33:44;;;;;;;8.75;1.77;;;6.00;99.90;;;;;;4955147;28;20454;-39
2020/12/24 07:36:10;;;;;;;18.30;2.30;;;6.10;99.90;;;;;;4997573;28;20041;-41
2020/12/24 07:38:36;;;;;;;14.07;3.53;;;6.00;99.90;;;;;;5006499;28;20033;-39
2020/12/24 07:41:02;;;;;;;8.60;1.42;;;6.10;99.90;;;;;;5005487;28;20037;-40
2020/12/24 07:43:27;;;;;;;13.82;1.80;;;6.00;99.90;;;;;;5005852;28;20042;-40
2020/12/24 07:45:53;;;;;;;8.48;1.40;;;6.00;99.90;;;;;;5009367;28;20544;-40
2020/12/24 07:48:20;;;;;;;12.90;0.75;;;6.10;99.90;;;;;;4997727;28;20505;-40
2020/12/24 07:50:48;;;;;;;9.75;1.63;;;6.00;99.90;;;;;;5009403;28;20073;-40
2020/12/24 07:53:18;;;;;;;12.32;1.58;;;6.00;99.90;;;;;;5012293;28;20069;-40
2020/12/24 07:55:44;;;;;;;15.80;2.22;;;5.90;99.90;;;;;;4996639;28;20029;-40
2020/12/24 07:58:12;;;;;;;7.90;1.70;;;5.90;99.90;;;;;;5004654;28;20045;-39
2020/12/24 08:00:52;;;;;;;11.00;1.35;;;5.90;99.90;;;;;;4998153;28;20585;-40
2020/12/24 08:03:18;;;;;;;13.70;2.45;;;6.00;99.90;;;;;;5006631;28;20045;-40
2020/12/24 08:05:45;;;;;;;10.52;1.63;;;6.00;99.90;;;;;;5029604;28;20057;-38
2020/12/24 08:08:11;;;;;;;10.57;1.70;;;6.10;99.90;;;;;;5028205;28;20104;-40
2020/12/24 08:10:43;;;;;;;17.17;2.40;;;6.10;99.90;;;;;;5018785;28;20022;-38
2020/12/24 08:13:10;;;;;;;21.40;3.28;;;6.00;99.90;;;;;;5031305;28;20406;-39
2020/12/24 08:15:41;;;;;;;15.93;2.53;;;5.80;99.90;;;;;;5014864;28;20103;-38
2020/12/24 08:18:09;;;;;;;15.27;1.80;;;5.70;99.90;;;;;;5029317;28;20092;-40
2020/12/24 08:20:52;;;;;;;9.18;1.48;;;5.70;99.90;;;;;;5026370;28;20490;-40
2020/12/24 08:23:49;;;;;;;12.07;2.00;;;5.70;99.90;;;;;;5026319;28;20113;-39
2020/12/24 08:26:15;;;;;;;11.70;1.83;;;5.70;99.90;;;;;;5032514;28;20139;-39
2020/12/24 08:29:01;;;;;;;16.35;1.60;;;5.70;99.90;;;;;;5029089;28;20025;-39
2020/12/24 08:31:29;;;;;;;19.13;2.47;;;5.80;99.90;;;;;;5019894;28;20087;-40
2020/12/24 08:33:56;;;;;;;11.25;2.42;;;5.80;99.90;;;;;;5029592;28;20368;-39
2020/12/24 08:36:26;;;;;;;12.10;2.80;;;5.80;99.90;;;;;;5025733;28;20538;-40
2020/12/24 08:39:05;;;;;;;19.80;2.13;;;5.80;99.90;;;;;;5027541;28;20474;-39
2020/12/24 08:41:34;;;;;;;12.40;1.52;;;5.90;99.90;;;;;;5012802;28;20053;-39
2020/12/24 08:44:05;;;;;;;23.15;2.35;;;5.90;99.90;;;;;;5018367;28;20120;-40
2020/12/24 08:46:31;;;;;;;11.50;2.17;;;5.90;99.90;;;;;;5018513;28;20050;-40
2020/12/24 08:49:16;;;;;;;18.27;2.45;;;5.90;99.90;;;;;;5015943;28;20040;-40
2020/12/24 08:51:41;;;;;;;13.25;1.50;;;6.00;99.90;;;;;;5032272;28;20235;-39
2020/12/24 08:54:07;;;;;;;11.38;2.10;;;6.00;99.90;;;;;;5034982;28;20476;-39
2020/12/24 08:56:36;;;;;;;20.88;5.03;;;6.00;99.90;;;;;;5022392;28;20022;-40
2020/12/24 08:59:15;;;;;;;37.50;6.45;;;5.80;99.90;;;;;;5021038;28;20026;-40
2020/12/24 09:01:43;;;;;;;18.33;2.63;;;5.80;99.90;;;;;;5026074;28;20053;-38
2020/12/24 09:04:17;;;;;;;11.48;1.80;;;5.80;99.90;;;;;;5027579;28;20021;-39
2020/12/24 09:06:46;;;;;;;9.40;1.10;;;5.60;99.90;;;;;;5023906;28;20033;-39
2020/12/24 09:09:25;;;;;;;11.02;1.70;;;5.60;99.90;;;;;;5026451;28;20029;-37
2020/12/24 09:11:53;;;;;;;10.60;1.67;;;5.70;99.90;;;;;;5011685;28;20077;-39
2020/12/24 09:14:21;;;;;;;11.25;2.10;;;5.70;99.90;;;;;;5008867;28;20041;-39
2020/12/24 09:16:57;;;;;;;23.42;2.58;;;5.80;99.90;;;;;;5009626;28;20034;-38
2020/12/24 09:19:24;;;;;;;13.98;1.65;;;5.80;99.90;;;;;;5013855;28;20693;-36
2020/12/24 09:21:55;;;;;;;18.95;2.20;;;5.80;99.90;;;;;;5012278;28;20120;-39
2020/12/24 09:24:21;;;;;;;22.38;2.88;;;5.90;99.90;;;;;;5027185;28;20393;-39
2020/12/24 09:26:48;;;;;;;15.90;1.83;;;5.90;99.90;;;;;;5032532;28;20045;-39
2020/12/24 09:29:15;;;;;;;11.90;2.03;;;6.00;99.90;;;;;;5033422;28;20037;-40
2020/12/24 09:31:41;;;;;;;17.35;2.15;;;5.90;99.90;;;;;;5028797;28;20124;-38
2020/12/24 09:34:07;;;;;;;12.50;2.30;;;6.00;99.90;;;;;;5030868;28;20034;-40
2020/12/24 09:36:33;;;;;;;20.10;2.40;;;6.00;99.90;;;;;;5029915;28;20440;-38
2020/12/24 09:38:58;;;;;;;18.63;1.95;;;6.10;99.90;;;;;;5033633;28;20024;-39
2020/12/24 09:41:24;;;;;;;16.92;2.67;;;6.10;99.90;;;;;;5043298;28;20039;-39
2020/12/24 09:43:50;;;;;;;13.55;1.88;;;6.20;99.90;;;;;;5038129;28;20041;-41
2020/12/24 09:46:16;;;;;;;23.13;3.42;;;6.20;99.90;;;;;;5035348;28;20055;-37
2020/12/24 09:48:41;;;;;;;21.98;2.20;;;6.20;99.90;;;;;;5049684;28;20025;-38
2020/12/24 09:51:07;;;;;;;29.10;3.28;;;6.30;99.90;;;;;;5052736;28;20033;-41
2020/12/24 09:53:33;;;;;;;16.45;3.08;;;6.30;99.90;;;;;;5046025;28;20446;-40
2020/12/24 09:55:59;;;;;;;17.38;2.22;;;6.40;99.90;;;;;;5047946;28;20096;-39
2020/12/24 09:58:24;;;;;;;16.75;2.30;;;6.30;99.90;;;;;;5048598;28;20033;-39
2020/12/24 10:00:50;;;;;;;28.05;3.15;;;6.30;99.90;;;;;;5052266;28;20044;-36
2020/12/24 10:03:16;;;;;;;16.80;2.72;;;6.30;99.90;;;;;;5049712;28;20029;-41
2020/12/24 10:05:41;;;;;;;12.38;2.63;;;6.30;99.90;;;;;;5048924;28;20040;-40
2020/12/24 10:08:07;;;;;;;12.57;1.83;;;6.30;99.90;;;;;;5053429;28;20037;-40
2020/12/24 10:10:32;;;;;;;11.68;1.65;;;6.40;99.90;;;;;;5053230;28;20116;-40
2020/12/24 10:12:58;;;;;;;14.13;1.92;;;6.50;99.90;;;;;;5052739;28;20394;-39
2020/12/24 10:15:23;;;;;;;12.05;2.63;;;6.50;99.90;;;;;;5053860;28;20021;-41
2020/12/24 10:17:49;;;;;;;17.65;2.78;;;6.60;99.90;;;;;;5053298;28;20025;-41
2020/12/24 10:20:15;;;;;;;22.75;2.85;;;6.50;99.90;;;;;;5053437;28;20028;-40
2020/12/24 10:22:40;;;;;;;25.95;2.58;;;6.60;99.90;;;;;;5053201;28;20025;-39
2020/12/24 10:25:06;;;;;;;27.13;3.42;;;6.70;99.90;;;;;;5051189;28;20382;-40
2020/12/24 10:27:31;;;;;;;22.30;3.15;;;6.70;99.90;;;;;;5052606;28;20055;-40
2020/12/24 10:29:57;;;;;;;27.23;3.65;;;6.80;99.90;;;;;;5052931;28;20054;-41
2020/12/24 10:32:22;;;;;;;22.88;3.55;;;6.80;99.90;;;;;;5051998;28;20037;-39
2020/12/24 10:34:48;;;;;;;14.68;2.78;;;6.90;99.90;;;;;;5049776;28;20373;-39
2020/12/24 10:37:14;;;;;;;17.83;3.35;;;6.80;99.90;;;;;;5055111;28;20099;-40
2020/12/24 10:39:40;;;;;;;12.48;2.20;;;6.80;99.90;;;;;;5050366;28;20056;-40
2020/12/24 10:42:05;;;;;;;18.33;2.67;;;6.70;99.90;;;;;;5054687;28;20033;-38
2020/12/24 10:44:31;;;;;;;20.67;2.63;;;6.70;99.90;;;;;;5050466;28;20066;-40
2020/12/24 10:46:57;;;;;;;31.27;5.20;;;6.70;99.90;;;;;;5054879;28;20102;-40
2020/12/24 10:49:25;;;;;;;9.43;1.50;;;6.80;99.90;;;;;;5051120;28;20099;-44
2020/12/24 10:51:51;;;;;;;14.23;2.15;;;6.70;99.90;;;;;;5052507;28;20041;-39
2020/12/24 10:54:17;;;;;;;8.57;1.33;;;6.60;99.90;;;;;;5048789;28;20104;-40
2020/12/24 10:56:50;;;;;;;11.25;1.73;;;6.50;99.90;;;;;;5054846;28;20526;-40
2020/12/24 10:59:16;;;;;;;10.25;1.92;;;6.50;99.90;;;;;;5046251;28;20382;-36
2020/12/24 11:01:49;;;;;;;13.77;3.83;;;6.40;99.90;;;;;;5030717;28;20045;-41
2020/12/24 11:04:15;;;;;;;27.33;3.28;;;6.30;99.90;;;;;;5032335;28;20032;-40
2020/12/24 11:06:45;;;;;;;15.80;2.28;;;6.20;99.90;;;;;;5053380;28;20102;-39
2020/12/24 11:09:12;;;;;;;14.20;1.83;;;6.00;99.90;;;;;;5050377;28;20033;-40
2020/12/24 11:11:38;;;;;;;14.23;2.30;;;6.00;99.90;;;;;;5032721;28;20041;-38
2020/12/24 11:14:05;;;;;;;12.07;2.50;;;5.90;99.90;;;;;;5032717;28;20122;-40
2020/12/24 11:16:30;;;;;;;25.75;3.60;;;5.90;99.90;;;;;;5053632;28;20064;-40
2020/12/24 11:18:56;;;;;;;18.48;3.03;;;6.00;99.90;;;;;;5050480;28;20079;-41
2020/12/24 11:21:22;;;;;;;20.05;3.53;;;6.20;99.90;;;;;;5049110;28;20044;-38
2020/12/24 11:23:49;;;;;;;15.02;2.63;;;6.30;99.90;;;;;;5050169;28;20033;-41
2020/12/24 11:26:22;;;;;;;17.20;2.63;;;6.50;99.90;;;;;;5036400;28;20026;-40
2020/12/24 11:28:48;;;;;;;19.88;3.40;;;6.60;99.90;;;;;;5045674;28;20116;-42
2020/12/24 11:31:14;;;;;;;19.02;2.20;;;6.90;99.90;;;;;;5051670;28;20452;-40
2020/12/24 11:33:41;;;;;;;15.45;2.10;;;6.90;99.90;;;;;;5050618;28;20080;-41
2020/12/24 11:36:06;;;;;;;16.83;2.00;;;6.50;99.90;;;;;;5034992;28;20035;-42
2020/12/24 11:38:32;;;;;;;11.45;1.30;;;6.30;99.90;;;;;;5033844;28;20100;-40
2020/12/24 11:40:57;;;;;;;15.43;1.45;;;6.10;99.90;;;;;;5052411;28;20037;-39
2020/12/24 11:43:23;;;;;;;18.77;2.08;;;6.10;99.90;;;;;;5034668;28;20029;-41
2020/12/24 11:45:49;;;;;;;15.77;1.83;;;6.20;99.90;;;;;;5049906;28;20033;-39
2020/12/24 11:48:14;;;;;;;15.10;1.70;;;6.60;99.90;;;;;;5049999;28;20070;-39
2020/12/24 11:50:40;;;;;;;19.33;2.83;;;6.60;99.90;;;;;;5049637;28;20049;-38
2020/12/24 11:53:06;;;;;;;19.88;3.03;;;6.20;99.90;;;;;;5051086;28;20040;-39
2020/12/24 11:55:32;;;;;;;17.42;2.13;;;5.90;99.90;;;;;;5043330;28;20040;-40
2020/12/24 11:57:57;;;;;;;20.17;2.65;;;5.90;99.90;;;;;;5041388;28;20045;-37
2020/12/24 12:00:23;;;;;;;15.77;2.80;;;6.00;99.90;;;;;;5039826;28;20030;-39
2020/12/24 12:02:51;;;;;;;26.65;2.92;;;5.90;99.90;;;;;;5049230;28;20055;-38
2020/12/24 12:05:17;;;;;;;21.80;2.28;;;6.10;99.90;;;;;;5034638;28;20389;-40
2020/12/24 12:07:44;;;;;;;32.80;3.80;;;6.20;99.90;;;;;;5048304;28;20032;-40
2020/12/24 12:10:09;;;;;;;21.38;3.28;;;6.10;99.90;;;;;;5033620;28;20102;-39
2020/12/24 12:12:35;;;;;;;25.27;3.50;;;6.00;99.90;;;;;;5050961;28;20053;-41
2020/12/24 12:15:00;;;;;;;26.88;4.40;;;6.00;99.90;;;;;;5052364;28;20025;-41
2020/12/24 12:17:26;;;;;;;29.92;3.10;;;6.00;99.90;;;;;;5051255;28;20671;-40
2020/12/24 12:19:52;;;;;;;17.25;2.60;;;6.00;99.90;;;;;;5052347;28;20025;-43
2020/12/24 12:22:17;;;;;;;19.17;2.97;;;6.00;99.90;;;;;;5050902;28;20104;-39
2020/12/24 12:24:43;;;;;;;23.35;3.72;;;5.90;99.90;;;;;;5029647;28;20036;-40
2020/12/24 12:27:09;;;;;;;20.67;4.05;;;5.90;99.90;;;;;;5048083;28;20115;-47
2020/12/24 12:29:35;;;;;;;13.18;1.60;;;5.90;99.90;;;;;;5033267;28;20083;-38
2020/12/24 12:32:02;;;;;;;15.07;1.92;;;5.90;99.90;;;;;;5031301;28;20489;-38
2020/12/24 12:34:28;;;;;;;14.18;3.10;;;5.90;99.90;;;;;;5050145;28;20395;-38
2020/12/24 12:36:54;;;;;;;28.00;5.05;;;5.90;99.90;;;;;;5052265;28;20076;-38
2020/12/24 12:39:22;;;;;;;23.98;2.92;;;5.90;99.90;;;;;;5049968;28;20031;-35
2020/12/24 12:41:48;;;;;;;19.15;3.00;;;5.90;99.90;;;;;;5032619;28;20402;-36
2020/12/24 12:44:15;;;;;;;18.17;3.60;;;5.90;99.90;;;;;;5031931;28;20032;-37
2020/12/24 12:46:40;;;;;;;16.13;2.33;;;6.10;99.90;;;;;;5051645;28;20482;-36
2020/12/24 12:49:07;;;;;;;17.27;3.08;;;6.10;99.90;;;;;;5048051;28;20035;-35